Time;durP1;ratioP1;P1;durP2;ratioP2;P2;SDS_P1;SDS_P2;PMS_P1;PMS_P2;Temp;Humidity;BMP_temperature;BMP_pressure;BME280_temperature;BME280_humidity;BME280_pressure;Samples;Min_cycle;Max_cycle;Signal;HPM_P1;HPM_P2
2022/12/09 00:01:12;;;;;;;16.27;11.05;;;2.20;99.90;;;;;;5124369;27;20481;-82
2022/12/09 00:03:38;;;;;;;18.02;11.65;;;2.20;99.90;;;;;;5114373;27;20091;-82
2022/12/09 00:06:13;;;;;;;16.92;11.07;;;2.20;99.90;;;;;;5119853;27;20035;-82
2022/12/09 00:08:38;;;;;;;17.77;11.07;;;2.20;99.90;;;;;;5126204;27;20051;-82
2022/12/09 00:11:05;;;;;;;20.48;12.02;;;2.20;99.90;;;;;;5121928;27;20070;-83
2022/12/09 00:13:30;;;;;;;18.85;11.45;;;2.20;99.90;;;;;;5128946;27;20079;-83
2022/12/09 00:15:56;;;;;;;16.33;10.82;;;2.20;99.90;;;;;;5126200;27;20050;-82
2022/12/09 00:18:22;;;;;;;16.73;11.27;;;2.20;99.90;;;;;;5104419;27;20070;-82
2022/12/09 00:20:47;;;;;;;15.95;10.65;;;2.20;99.90;;;;;;5117592;27;20108;-82
2022/12/09 00:23:13;;;;;;;17.88;11.20;;;2.20;99.90;;;;;;5112461;27;20042;-82
2022/12/09 00:25:38;;;;;;;17.48;11.25;;;2.20;99.90;;;;;;5118278;27;20070;-82
2022/12/09 00:28:04;;;;;;;19.27;11.82;;;2.20;99.90;;;;;;5110166;27;20056;-82
2022/12/09 00:30:29;;;;;;;16.63;9.73;;;2.20;99.90;;;;;;5099689;27;20051;-82
2022/12/09 00:32:55;;;;;;;17.33;11.13;;;2.20;99.90;;;;;;5126960;27;20100;-82
2022/12/09 00:35:21;;;;;;;16.77;10.80;;;2.60;99.90;;;;;;5127528;27;20488;-83
2022/12/09 00:37:47;;;;;;;17.15;10.20;;;2.20;99.90;;;;;;5128996;27;20095;-83
2022/12/09 00:40:13;;;;;;;18.08;10.88;;;2.10;99.90;;;;;;5131449;27;20404;-82
2022/12/09 00:42:38;;;;;;;17.98;10.70;;;2.10;99.90;;;;;;5101606;27;20073;-82
2022/12/09 00:45:06;;;;;;;20.77;11.50;;;2.10;99.90;;;;;;5122371;27;20043;-83
2022/12/09 00:47:32;;;;;;;17.85;11.25;;;2.10;99.90;;;;;;5107220;27;20126;-82
2022/12/09 00:49:57;;;;;;;19.65;11.00;;;2.00;99.90;;;;;;5123028;27;20131;-83
2022/12/09 00:52:23;;;;;;;18.88;12.32;;;2.10;99.90;;;;;;5127335;27;20046;-82
2022/12/09 00:54:49;;;;;;;18.23;11.52;;;2.10;99.90;;;;;;5130062;27;20091;-82
2022/12/09 00:57:15;;;;;;;18.65;11.70;;;2.00;99.90;;;;;;5112477;27;20122;-83
2022/12/09 00:59:40;;;;;;;19.88;10.82;;;2.00;99.90;;;;;;5108896;28;20047;-82
2022/12/09 01:02:06;;;;;;;19.90;11.93;;;2.00;99.90;;;;;;5123985;27;20039;-83
2022/12/09 01:04:31;;;;;;;18.02;11.95;;;2.00;99.90;;;;;;5117372;27;20049;-82
2022/12/09 01:06:57;;;;;;;19.58;11.93;;;2.00;99.90;;;;;;5114720;27;20039;-82
2022/12/09 01:09:23;;;;;;;16.58;10.75;;;2.00;99.90;;;;;;5108771;27;20031;-83
2022/12/09 01:11:48;;;;;;;18.90;11.18;;;2.00;99.90;;;;;;5115320;27;20052;-82
2022/12/09 01:14:14;;;;;;;17.48;10.85;;;2.00;99.90;;;;;;5127237;27;20480;-82
2022/12/09 01:16:39;;;;;;;22.23;12.45;;;2.00;99.90;;;;;;5129649;27;20129;-83
2022/12/09 01:19:10;;;;;;;18.85;11.65;;;2.00;99.90;;;;;;5126677;27;20039;-82
2022/12/09 01:21:36;;;;;;;19.20;12.18;;;2.00;99.90;;;;;;5120150;27;20449;-82
2022/12/09 01:24:08;;;;;;;19.35;11.80;;;2.00;99.90;;;;;;5123757;27;20043;-82
2022/12/09 01:26:34;;;;;;;15.88;10.32;;;1.90;99.90;;;;;;5119755;27;20043;-83
2022/12/09 01:29:00;;;;;;;19.15;12.05;;;1.90;99.90;;;;;;5113539;27;20035;-82
2022/12/09 01:31:26;;;;;;;17.17;11.55;;;1.80;99.90;;;;;;5127711;27;20484;-82
2022/12/09 01:33:54;;;;;;;17.88;11.52;;;1.70;99.90;;;;;;5107112;27;20050;-82
2022/12/09 01:36:23;;;;;;;18.67;11.40;;;1.70;99.90;;;;;;5125664;27;20061;-82
2022/12/09 01:38:49;;;;;;;20.77;12.38;;;1.60;99.90;;;;;;5129623;27;20042;-83
2022/12/09 01:41:17;;;;;;;15.88;10.48;;;1.50;99.90;;;;;;5124447;27;20087;-82
2022/12/09 01:43:43;;;;;;;18.25;10.93;;;1.40;99.90;;;;;;5125926;27;20125;-82
2022/12/09 01:46:08;;;;;;;18.33;10.93;;;1.40;99.90;;;;;;5095942;27;20691;-82
2022/12/09 01:48:38;;;;;;;18.83;12.20;;;1.30;99.90;;;;;;5119700;27;20038;-82
2022/12/09 01:51:11;;;;;;;16.38;9.98;;;1.20;99.90;;;;;;5126328;27;20446;-83
2022/12/09 01:53:41;;;;;;;18.77;11.48;;;1.10;99.90;;;;;;5119349;27;20051;-83
2022/12/09 01:56:16;;;;;;;19.40;11.32;;;1.10;99.90;;;;;;5112813;27;20107;-82
2022/12/09 01:58:42;;;;;;;18.52;10.75;;;1.00;99.90;;;;;;5100805;27;20035;-82
2022/12/09 02:01:08;;;;;;;18.65;10.98;;;0.90;99.90;;;;;;5126857;27;20047;-82
2022/12/09 02:03:34;;;;;;;18.13;10.90;;;0.90;99.90;;;;;;5126131;27;20051;-82
2022/12/09 02:05:59;;;;;;;18.00;11.23;;;0.80;99.90;;;;;;5114392;27;20034;-82
2022/12/09 02:08:25;;;;;;;17.85;11.50;;;0.70;99.90;;;;;;5128618;27;20072;-82
2022/12/09 02:10:50;;;;;;;17.20;10.60;;;0.70;99.90;;;;;;5133281;27;20059;-82
2022/12/09 02:13:38;;;;;;;16.58;10.13;;;0.70;99.90;;;;;;5095940;27;20055;-82
2022/12/09 02:16:08;;;;;;;18.17;10.40;;;0.70;99.90;;;;;;5111649;27;20051;-82
2022/12/09 02:18:49;;;;;;;18.73;11.20;;;0.70;99.90;;;;;;5129108;27;21167;-82
2022/12/09 02:21:32;;;;;;;17.20;10.40;;;0.60;99.90;;;;;;5124707;27;20051;-82
2022/12/09 02:24:27;;;;;;;15.88;9.73;;;0.70;99.90;;;;;;5094857;27;20039;-82
2022/12/09 02:27:20;;;;;;;18.35;10.85;;;0.70;99.90;;;;;;5115173;27;20183;-81
2022/12/09 02:29:58;;;;;;;19.13;10.50;;;0.70;99.90;;;;;;5113513;27;20095;-82
2022/12/09 02:32:49;;;;;;;18.42;11.30;;;0.70;99.90;;;;;;5118729;27;20042;-82
2022/12/09 02:35:23;;;;;;;18.73;11.18;;;0.50;99.90;;;;;;5128779;27;20118;-82
2022/12/09 02:38:07;;;;;;;19.83;11.27;;;0.70;99.90;;;;;;5117087;27;20440;-82
2022/12/09 02:40:56;;;;;;;20.73;11.48;;;0.70;99.90;;;;;;5132993;27;20119;-82
2022/12/09 02:43:25;;;;;;;16.00;9.77;;;0.70;99.90;;;;;;5096278;27;20489;-82
2022/12/09 02:45:53;;;;;;;18.35;10.13;;;0.70;99.90;;;;;;5130983;27;20488;-82
2022/12/09 02:48:23;;;;;;;21.33;11.98;;;0.80;99.90;;;;;;5132291;27;20079;-82
2022/12/09 02:50:51;;;;;;;18.85;11.30;;;0.80;99.90;;;;;;5132915;27;20069;-83
2022/12/09 02:53:17;;;;;;;18.25;11.02;;;0.80;99.90;;;;;;5109011;27;20653;-82
2022/12/09 02:55:46;;;;;;;19.90;10.43;;;0.80;99.90;;;;;;5131819;27;20046;-83
2022/12/09 02:58:11;;;;;;;19.45;10.23;;;0.80;99.90;;;;;;5126130;27;20115;-82
2022/12/09 03:00:39;;;;;;;18.90;10.65;;;0.80;99.90;;;;;;5127793;27;20141;-82
2022/12/09 03:03:08;;;;;;;22.48;11.30;;;0.80;99.90;;;;;;5114370;27;20564;-82
2022/12/09 03:06:00;;;;;;;16.13;10.82;;;0.80;99.90;;;;;;5112700;27;20084;-82
2022/12/09 03:08:56;;;;;;;19.83;11.07;;;0.90;99.90;;;;;;5129316;27;20042;-82
2022/12/09 03:11:23;;;;;;;16.63;9.95;;;0.90;99.90;;;;;;5105416;27;20212;-82
2022/12/09 03:14:12;;;;;;;20.08;11.25;;;1.00;99.90;;;;;;5112615;27;20054;-82
2022/12/09 03:16:54;;;;;;;20.52;11.57;;;1.00;99.90;;;;;;5101097;27;20103;-82
2022/12/09 03:19:32;;;;;;;18.85;10.10;;;1.00;99.90;;;;;;5114905;27;20065;-82
2022/12/09 03:22:01;;;;;;;21.30;10.18;;;1.00;99.90;;;;;;5126881;27;20883;-82
2022/12/09 03:24:35;;;;;;;21.25;11.40;;;1.00;99.90;;;;;;5097929;27;20050;-82
2022/12/09 03:27:06;;;;;;;18.45;11.18;;;1.10;99.90;;;;;;5120080;27;20051;-82
2022/12/09 03:29:36;;;;;;;18.45;10.45;;;1.10;99.90;;;;;;5120733;27;20550;-82
2022/12/09 03:32:01;;;;;;;18.70;11.73;;;1.10;99.90;;;;;;5130642;27;20129;-82
2022/12/09 03:34:37;;;;;;;20.13;11.13;;;1.10;99.90;;;;;;5129266;27;20158;-82
2022/12/09 03:37:05;;;;;;;19.15;10.45;;;1.00;99.90;;;;;;5127405;27;20042;-82
2022/12/09 03:39:34;;;;;;;18.20;10.85;;;1.10;99.90;;;;;;5129261;27;20057;-82
2022/12/09 03:42:04;;;;;;;17.33;10.05;;;1.00;99.90;;;;;;5112108;27;20376;-82
2022/12/09 03:44:39;;;;;;;19.80;11.63;;;1.10;99.90;;;;;;5097974;27;20043;-82
2022/12/09 03:47:06;;;;;;;22.33;11.50;;;1.00;99.90;;;;;;5122818;27;20053;-82
2022/12/09 03:49:32;;;;;;;22.63;12.27;;;1.00;99.90;;;;;;5107278;27;20049;-82
2022/12/09 03:52:22;;;;;;;19.52;11.55;;;0.90;99.90;;;;;;5131043;27;20154;-82
2022/12/09 03:54:54;;;;;;;19.92;11.18;;;0.90;99.90;;;;;;5112144;27;20039;-82
2022/12/09 03:57:21;;;;;;;18.38;10.90;;;0.90;99.90;;;;;;5127776;27;20046;-82
2022/12/09 03:59:52;;;;;;;21.98;12.55;;;0.90;99.90;;;;;;5120374;27;20078;-82
2022/12/09 04:02:19;;;;;;;16.65;9.63;;;0.90;99.90;;;;;;5118074;27;20040;-82
2022/12/09 04:04:44;;;;;;;21.17;11.30;;;0.80;99.90;;;;;;5121322;27;20508;-82
2022/12/09 04:07:10;;;;;;;22.98;11.57;;;0.80;99.90;;;;;;5126029;27;20047;-82
2022/12/09 04:09:36;;;;;;;19.33;10.95;;;0.70;99.90;;;;;;5124445;27;20058;-82
2022/12/09 04:12:02;;;;;;;18.77;11.30;;;0.70;99.90;;;;;;5097381;28;20056;-82
2022/12/09 04:14:27;;;;;;;20.98;10.80;;;0.70;99.90;;;;;;5103550;28;20052;-83
2022/12/09 04:16:53;;;;;;;20.48;11.63;;;0.70;99.90;;;;;;5106513;28;20085;-83
2022/12/09 04:19:19;;;;;;;21.38;11.75;;;0.70;99.90;;;;;;5104615;28;20091;-83
2022/12/09 04:21:44;;;;;;;18.67;10.77;;;0.70;99.90;;;;;;5085629;28;20516;-83
2022/12/09 04:24:10;;;;;;;18.33;10.60;;;0.70;99.90;;;;;;5102333;28;20515;-83
2022/12/09 04:26:35;;;;;;;18.80;10.38;;;0.70;99.90;;;;;;5105978;28;20044;-83
2022/12/09 04:29:01;;;;;;;18.98;10.65;;;0.60;99.90;;;;;;5102660;28;20794;-83
2022/12/09 04:31:27;;;;;;;18.73;10.85;;;0.60;99.90;;;;;;5088374;28;20075;-83
2022/12/09 04:33:52;;;;;;;18.35;10.85;;;0.50;99.90;;;;;;5106341;28;20159;-83
2022/12/09 04:36:19;;;;;;;18.65;10.57;;;0.40;99.90;;;;;;5103895;28;20436;-83
2022/12/09 04:38:45;;;;;;;21.70;11.52;;;0.40;99.90;;;;;;5092730;28;20040;-83
2022/12/09 04:41:11;;;;;;;25.83;12.38;;;0.30;99.90;;;;;;5095245;28;20649;-83
2022/12/09 04:43:38;;;;;;;17.92;10.63;;;0.30;99.90;;;;;;5098777;28;20032;-83
2022/12/09 04:46:10;;;;;;;18.83;10.50;;;0.20;99.90;;;;;;5085240;28;20039;-83
2022/12/09 04:48:39;;;;;;;23.42;11.23;;;0.90;99.90;;;;;;5069192;28;20044;-83
2022/12/09 04:51:08;;;;;;;21.77;11.07;;;0.00;99.90;;;;;;5099986;28;20035;-83
2022/12/09 04:53:34;;;;;;;20.67;11.63;;;0.00;99.90;;;;;;5098289;28;20067;-82
2022/12/09 04:56:01;;;;;;;17.70;10.27;;;-0.10;99.90;;;;;;5104554;28;20478;-83
2022/12/09 04:58:26;;;;;;;22.98;11.45;;;-0.10;99.90;;;;;;5103345;28;20090;-83
2022/12/09 05:00:52;;;;;;;17.67;9.80;;;-0.20;99.90;;;;;;5087639;28;20089;-83
2022/12/09 05:03:18;;;;;;;17.58;10.13;;;-0.20;99.90;;;;;;5091650;28;20063;-83
2022/12/09 05:05:43;;;;;;;18.80;10.05;;;-0.30;99.90;;;;;;5099347;28;20042;-83
2022/12/09 05:08:09;;;;;;;18.15;10.25;;;-0.30;99.90;;;;;;5094659;28;20501;-83
2022/12/09 05:10:34;;;;;;;20.27;10.85;;;-0.30;99.90;;;;;;5094734;28;20434;-83
2022/12/09 05:13:00;;;;;;;20.45;10.90;;;-0.30;99.90;;;;;;5112217;28;20171;-82
2022/12/09 05:15:26;;;;;;;19.90;10.48;;;-0.40;99.90;;;;;;5124704;27;20050;-83
2022/12/09 05:17:52;;;;;;;19.48;11.15;;;-0.40;99.90;;;;;;5129893;27;20039;-83
2022/12/09 05:20:18;;;;;;;20.83;12.02;;;-0.50;99.90;;;;;;5111231;27;20043;-83
2022/12/09 05:22:43;;;;;;;17.45;10.07;;;-0.50;99.90;;;;;;5125336;27;20099;-83
2022/12/09 05:25:09;;;;;;;18.13;10.75;;;-0.50;99.90;;;;;;5118176;27;20389;-83
2022/12/09 05:27:37;;;;;;;21.65;11.32;;;-0.60;99.90;;;;;;5112004;27;20511;-83
2022/12/09 05:30:06;;;;;;;18.50;10.07;;;-0.60;99.90;;;;;;5137347;27;20049;-83
2022/12/09 05:32:34;;;;;;;20.63;10.25;;;-0.60;99.90;;;;;;5127097;27;20074;-82
2022/12/09 05:34:59;;;;;;;19.58;10.45;;;-0.70;99.90;;;;;;5133942;27;20138;-83
2022/12/09 05:37:28;;;;;;;18.35;9.80;;;-0.70;99.90;;;;;;5132918;27;20145;-83
2022/12/09 05:39:53;;;;;;;18.55;9.93;;;-0.80;99.90;;;;;;5115101;27;20047;-82
2022/12/09 05:42:19;;;;;;;20.45;10.82;;;-0.80;99.90;;;;;;5124637;27;20472;-82
2022/12/09 05:44:45;;;;;;;19.55;10.65;;;-0.80;99.90;;;;;;5125632;27;20042;-83
2022/12/09 05:47:10;;;;;;;19.65;11.23;;;-0.80;99.90;;;;;;5135535;27;20042;-82
2022/12/09 05:49:37;;;;;;;23.90;11.15;;;-0.80;99.90;;;;;;5132910;27;20043;-83
2022/12/09 05:52:03;;;;;;;22.35;10.70;;;-0.80;99.90;;;;;;5122146;27;20047;-82
2022/12/09 05:54:29;;;;;;;20.40;10.75;;;-0.80;99.90;;;;;;5131153;27;20041;-82
2022/12/09 05:56:56;;;;;;;20.17;10.68;;;-0.90;99.90;;;;;;5121343;27;20043;-79
2022/12/09 05:59:22;;;;;;;20.25;10.52;;;-0.90;99.90;;;;;;5125556;27;20050;-82
2022/12/09 06:01:48;;;;;;;21.50;10.55;;;-0.90;99.90;;;;;;5134577;27;20125;-82
2022/12/09 06:04:14;;;;;;;21.27;10.30;;;-0.90;99.90;;;;;;5142264;27;20045;-82
2022/12/09 06:06:40;;;;;;;18.65;10.52;;;-0.90;99.90;;;;;;5123534;27;20051;-82
2022/12/09 06:09:10;;;;;;;23.83;10.45;;;-1.00;99.90;;;;;;5112189;27;20444;-82
2022/12/09 06:11:36;;;;;;;25.45;11.40;;;-1.00;99.90;;;;;;5116354;27;20059;-82
2022/12/09 06:14:03;;;;;;;27.45;12.48;;;-1.00;99.90;;;;;;5129792;27;20043;-82
2022/12/09 06:16:28;;;;;;;24.45;12.43;;;-1.00;99.90;;;;;;5125364;27;20089;-82
2022/12/09 06:18:54;;;;;;;22.67;11.55;;;-1.00;99.90;;;;;;5108149;27;20042;-82
2022/12/09 06:21:21;;;;;;;23.92;12.38;;;-1.00;99.90;;;;;;5111865;27;20130;-82
2022/12/09 06:23:47;;;;;;;31.15;13.88;;;-1.00;99.90;;;;;;5119027;27;20046;-82
2022/12/09 06:26:19;;;;;;;26.75;12.25;;;-1.00;99.90;;;;;;5123794;27;20472;-80
2022/12/09 06:28:45;;;;;;;24.40;11.95;;;-1.10;99.90;;;;;;5114216;27;20167;-80
2022/12/09 06:31:11;;;;;;;25.23;13.23;;;-1.00;99.90;;;;;;5116826;27;20055;-80
2022/12/09 06:33:37;;;;;;;25.88;11.48;;;-1.00;99.90;;;;;;5127912;27;20035;-80
2022/12/09 06:36:03;;;;;;;28.10;12.15;;;-1.00;99.90;;;;;;5122396;27;20050;-80
2022/12/09 06:38:29;;;;;;;24.02;12.35;;;-1.00;99.90;;;;;;5144415;27;20141;-81
2022/12/09 06:40:55;;;;;;;25.52;12.70;;;-1.10;99.90;;;;;;5151800;27;20209;-81
2022/12/09 06:43:21;;;;;;;25.88;12.50;;;-1.10;99.90;;;;;;5134216;27;20074;-80
2022/12/09 06:45:46;;;;;;;25.00;13.05;;;-1.10;99.90;;;;;;5114291;27;20039;-81
2022/12/09 06:48:12;;;;;;;23.30;12.13;;;-1.10;99.90;;;;;;5122367;27;20050;-80
2022/12/09 06:50:38;;;;;;;27.73;11.63;;;-1.10;99.90;;;;;;5118351;27;20054;-81
2022/12/09 06:53:04;;;;;;;24.50;11.20;;;-1.20;99.90;;;;;;5132097;27;20039;-81
2022/12/09 06:55:30;;;;;;;22.58;11.52;;;-1.20;99.90;;;;;;5113912;27;20043;-81
2022/12/09 06:57:57;;;;;;;28.27;12.95;;;-1.30;99.90;;;;;;5113977;27;20085;-84
2022/12/09 07:00:23;;;;;;;25.92;12.05;;;-1.30;99.90;;;;;;5096481;27;20051;-81
2022/12/09 07:02:48;;;;;;;29.58;12.30;;;-1.30;99.90;;;;;;5117688;27;20063;-81
2022/12/09 07:05:14;;;;;;;31.33;12.15;;;-1.40;99.90;;;;;;5150351;27;20477;-84
2022/12/09 07:07:40;;;;;;;27.23;12.02;;;-1.30;99.90;;;;;;5110420;27;20050;-81
2022/12/09 07:10:07;;;;;;;24.42;12.15;;;-1.40;99.90;;;;;;5135248;27;20039;-81
2022/12/09 07:12:33;;;;;;;24.10;11.95;;;-1.40;99.90;;;;;;5130512;27;20146;-80
2022/12/09 07:14:59;;;;;;;25.52;12.35;;;-1.40;99.90;;;;;;5127004;27;20449;-81
2022/12/09 07:17:24;;;;;;;25.23;12.45;;;-1.50;99.90;;;;;;5116232;27;20039;-81
2022/12/09 07:19:50;;;;;;;29.50;13.82;;;-1.50;99.90;;;;;;5111534;27;20103;-81
2022/12/09 07:22:16;;;;;;;26.23;12.77;;;-1.50;99.90;;;;;;5112736;27;20043;-79
2022/12/09 07:24:41;;;;;;;26.08;12.60;;;-1.50;99.90;;;;;;5131781;27;20053;-79
2022/12/09 07:27:10;;;;;;;24.27;12.43;;;-1.50;99.90;;;;;;5112675;27;20087;-79
2022/12/09 07:29:36;;;;;;;28.00;13.63;;;-1.60;99.90;;;;;;5130230;27;20070;-79
2022/12/09 07:32:02;;;;;;;33.60;15.00;;;-1.60;99.90;;;;;;5112631;27;20411;-81
2022/12/09 07:34:28;;;;;;;29.25;15.30;;;-1.60;99.90;;;;;;5112930;27;20042;-80
2022/12/09 07:36:54;;;;;;;33.42;16.75;;;-1.60;99.90;;;;;;5133081;27;20105;-80
2022/12/09 07:39:20;;;;;;;34.00;16.05;;;-1.70;99.90;;;;;;5133269;27;20134;-79
2022/12/09 07:41:51;;;;;;;32.00;16.88;;;-1.70;99.90;;;;;;5115596;27;20050;-81
2022/12/09 07:44:16;;;;;;;32.60;16.95;;;-1.70;99.90;;;;;;5132820;27;20054;-81
2022/12/09 07:46:42;;;;;;;29.63;16.05;;;-1.70;99.90;;;;;;5116132;27;20039;-82
2022/12/09 07:49:09;;;;;;;28.95;14.88;;;-1.70;99.90;;;;;;5117466;27;20050;-81
2022/12/09 07:51:35;;;;;;;32.40;13.40;;;-1.70;99.90;;;;;;5132827;27;20043;-81
2022/12/09 07:54:00;;;;;;;29.00;13.63;;;-1.80;99.90;;;;;;5133279;27;20046;-81
2022/12/09 07:56:27;;;;;;;32.10;14.93;;;-1.80;99.90;;;;;;5130636;27;20038;-81
2022/12/09 07:58:53;;;;;;;59.30;29.10;;;-1.70;99.90;;;;;;5132762;27;20058;-82
2022/12/09 08:01:27;;;;;;;53.10;25.75;;;-1.70;99.90;;;;;;5115626;27;20046;-84
2022/12/09 08:03:53;;;;;;;39.20;19.60;;;-1.70;99.90;;;;;;5128607;27;20476;-84
2022/12/09 08:06:21;;;;;;;42.22;22.55;;;-1.80;99.90;;;;;;5128281;27;20071;-85
2022/12/09 08:08:47;;;;;;;44.80;22.48;;;-1.80;99.90;;;;;;5100773;28;20046;-84
2022/12/09 08:11:21;;;;;;;35.78;17.27;;;-1.80;99.90;;;;;;5106756;28;20059;-84
2022/12/09 08:13:47;;;;;;;29.58;13.98;;;-1.80;99.90;;;;;;5090425;28;20502;-84
2022/12/09 08:16:15;;;;;;;31.13;16.48;;;-1.70;99.90;;;;;;5121268;27;20055;-84
2022/12/09 08:18:41;;;;;;;36.10;18.30;;;-1.70;99.90;;;;;;5110242;27;20062;-84
2022/12/09 08:21:11;;;;;;;34.13;17.52;;;-1.80;99.90;;;;;;5093510;27;20075;-84
2022/12/09 08:23:37;;;;;;;31.27;15.55;;;-1.70;99.90;;;;;;5110543;27;20573;-84
2022/12/09 08:26:03;;;;;;;36.78;15.48;;;-1.80;99.90;;;;;;5127069;27;20153;-84
2022/12/09 08:28:29;;;;;;;29.85;13.57;;;-0.70;99.90;;;;;;5127467;27;20039;-84
2022/12/09 08:30:55;;;;;;;28.70;14.40;;;-1.60;99.90;;;;;;5092543;27;20043;-84
2022/12/09 08:33:21;;;;;;;31.85;14.82;;;-1.70;99.90;;;;;;5109903;27;20420;-84
2022/12/09 08:35:46;;;;;;;34.65;15.50;;;-1.40;99.90;;;;;;5111398;27;20708;-84
2022/12/09 08:38:12;;;;;;;38.53;16.02;;;-1.60;99.90;;;;;;5111834;27;20137;-84
2022/12/09 08:40:38;;;;;;;31.17;14.82;;;-1.50;99.90;;;;;;5111800;27;20039;-84
2022/12/09 08:43:07;;;;;;;35.35;15.75;;;-1.50;99.90;;;;;;5111067;27;20051;-84
2022/12/09 08:45:35;;;;;;;37.22;15.50;;;-1.50;99.90;;;;;;5094207;27;20043;-83
2022/12/09 08:48:01;;;;;;;37.42;16.83;;;-1.40;99.90;;;;;;5127988;27;20035;-85
2022/12/09 08:50:27;;;;;;;35.72;16.80;;;-1.40;99.90;;;;;;5111431;27;20051;-84
2022/12/09 08:52:52;;;;;;;34.30;15.55;;;-1.40;99.90;;;;;;5111275;27;20043;-84
2022/12/09 08:55:18;;;;;;;35.45;16.67;;;-1.30;99.90;;;;;;5111511;27;20349;-84
2022/12/09 08:57:43;;;;;;;36.33;16.38;;;-1.30;99.90;;;;;;5094171;27;20772;-84
2022/12/09 09:00:10;;;;;;;39.22;16.55;;;-1.30;99.90;;;;;;5111186;27;20085;-84
2022/12/09 09:02:35;;;;;;;41.00;18.42;;;-1.20;99.90;;;;;;5110292;27;20063;-84
2022/12/09 09:05:01;;;;;;;44.58;19.80;;;-1.20;99.90;;;;;;5110709;28;20051;-84
2022/12/09 09:07:26;;;;;;;43.60;18.23;;;-0.90;99.90;;;;;;5110713;27;20047;-84
2022/12/09 09:09:52;;;;;;;40.30;17.23;;;-0.80;99.90;;;;;;5094455;28;20043;-84
2022/12/09 09:12:17;;;;;;;42.55;18.25;;;-0.70;99.90;;;;;;5110373;28;20516;-84
2022/12/09 09:14:43;;;;;;;50.63;19.98;;;-0.60;99.90;;;;;;5110679;27;20107;-84
2022/12/09 09:17:08;;;;;;;40.38;18.25;;;-0.40;99.90;;;;;;5111015;27;20045;-84
2022/12/09 09:19:34;;;;;;;67.75;24.25;;;-0.30;99.90;;;;;;5111192;28;20055;-85
2022/12/09 09:22:00;;;;;;;58.90;23.88;;;-0.20;99.90;;;;;;5093263;28;20051;-85
2022/12/09 09:24:25;;;;;;;61.67;23.73;;;1.30;99.90;;;;;;5093831;27;20039;-85
2022/12/09 09:26:52;;;;;;;76.82;27.55;;;0.00;99.90;;;;;;5093758;28;20039;-84
2022/12/09 09:29:20;;;;;;;81.90;27.35;;;0.10;99.90;;;;;;5110481;27;20051;-85
2022/12/09 09:31:48;;;;;;;93.18;27.85;;;0.20;99.90;;;;;;5109425;28;20130;-85
2022/12/09 09:34:16;;;;;;;86.43;28.13;;;0.20;99.90;;;;;;5111222;28;20510;-85
2022/12/09 09:36:42;;;;;;;126.40;32.10;;;0.30;99.90;;;;;;5127844;27;20047;-85
2022/12/09 09:39:07;;;;;;;167.25;34.38;;;0.50;99.90;;;;;;5094232;28;20035;-85
2022/12/09 09:41:51;;;;;;;174.80;33.83;;;0.30;99.90;;;;;;5110533;27;20051;-85
2022/12/09 09:44:26;;;;;;;108.68;30.10;;;0.60;99.90;;;;;;5093610;27;20054;-85
2022/12/09 09:46:53;;;;;;;262.13;40.38;;;0.60;99.90;;;;;;5128602;27;20083;-86
2022/12/09 09:49:19;;;;;;;241.57;37.80;;;0.60;99.90;;;;;;5094172;27;20043;-85
2022/12/09 09:51:45;;;;;;;335.23;46.10;;;0.80;99.90;;;;;;5108915;27;20054;-85
2022/12/09 09:54:13;;;;;;;330.73;43.30;;;0.40;99.90;;;;;;5100809;27;20058;-85
2022/12/09 09:56:50;;;;;;;369.70;44.47;;;0.60;99.90;;;;;;5129369;27;20050;-88
2022/12/09 09:59:21;;;;;;;395.38;45.78;;;0.60;99.90;;;;;;5110952;28;20068;-86
2022/12/09 10:02:11;;;;;;;411.92;48.33;;;0.30;99.90;;;;;;5110840;28;20114;-87
2022/12/09 10:05:11;;;;;;;327.80;42.67;;;0.80;99.90;;;;;;5126329;27;20106;-88
2022/12/09 10:07:40;;;;;;;350.05;44.72;;;0.80;99.90;;;;;;5132205;27;20488;-88
2022/12/09 10:10:38;;;;;;;329.10;43.88;;;0.70;99.90;;;;;;5124945;28;20088;-88
2022/12/09 10:13:10;;;;;;;402.75;46.88;;;0.80;99.90;;;;;;5091216;28;20047;-86
2022/12/09 10:15:43;;;;;;;347.33;43.78;;;0.70;99.90;;;;;;5094875;28;20485;-87
2022/12/09 10:18:24;;;;;;;336.85;41.35;;;0.80;99.90;;;;;;5114717;27;20058;-86
2022/12/09 10:20:50;;;;;;;291.60;39.00;;;0.90;99.90;;;;;;5116881;27;20039;-84
2022/12/09 10:23:16;;;;;;;359.65;42.85;;;0.90;99.90;;;;;;5114132;27;20040;-80
2022/12/09 10:26:13;;;;;;;250.45;35.63;;;0.90;99.90;;;;;;5132489;27;20054;-80
2022/12/09 10:28:45;;;;;;;264.95;39.10;;;1.00;99.90;;;;;;5124460;27;20115;-80
2022/12/09 10:31:10;;;;;;;141.55;29.65;;;0.90;99.90;;;;;;5132213;27;20630;-80
2022/12/09 10:33:38;;;;;;;188.07;34.85;;;0.90;99.90;;;;;;5134547;27;20072;-80
2022/12/09 10:36:06;;;;;;;169.77;31.60;;;1.10;99.90;;;;;;5153146;27;20400;-81
2022/12/09 10:38:36;;;;;;;375.73;42.10;;;1.00;99.90;;;;;;5130538;27;20128;-79
2022/12/09 10:43:33;;;;;;;136.45;27.80;;;0.30;99.90;;;;;;5112381;27;20315;-81
2022/12/09 10:44:19;;;;;;;203.80;34.45;;;1.00;99.90;;;;;;5113876;27;20116;-82
2022/12/09 10:46:45;;;;;;;218.13;36.60;;;1.10;99.90;;;;;;5096850;27;20137;-82
2022/12/09 10:49:19;;;;;;;139.70;30.90;;;1.20;99.90;;;;;;5094001;28;20196;-82
2022/12/09 10:51:50;;;;;;;76.20;26.13;;;0.80;99.90;;;;;;5124527;27;20066;-82
2022/12/09 10:54:31;;;;;;;92.57;27.90;;;1.20;99.90;;;;;;5135077;27;20070;-82
2022/12/09 10:57:27;;;;;;;92.50;29.00;;;1.20;99.90;;;;;;5134442;27;20435;-81
2022/12/09 11:00:34;;;;;;;89.63;29.38;;;1.40;99.90;;;;;;5115403;27;20058;-81
2022/12/09 11:02:59;;;;;;;70.50;28.23;;;1.10;99.90;;;;;;5111430;27;20100;-82
2022/12/09 11:05:26;;;;;;;73.35;27.55;;;;;;;;;;5113505;27;20100;-82
2022/12/09 11:07:54;;;;;;;70.78;27.83;;;1.30;99.90;;;;;;5111901;27;20823;-82
2022/12/09 11:10:25;;;;;;;76.32;28.08;;;1.40;99.90;;;;;;5131617;27;20039;-80
2022/12/09 11:12:52;;;;;;;59.53;24.77;;;;;;;;;;5094978;27;20383;-82
2022/12/09 11:15:33;;;;;;;65.28;27.75;;;1.40;99.90;;;;;;5147861;27;20055;-83
2022/12/09 11:18:03;;;;;;;69.93;25.92;;;1.30;99.90;;;;;;5109893;27;20054;-82
2022/12/09 11:20:31;;;;;;;56.17;25.08;;;1.40;99.90;;;;;;5123208;27;20050;-82
2022/12/09 11:23:11;;;;;;;67.68;28.23;;;1.40;99.90;;;;;;5141291;27;20070;-82
2022/12/09 11:25:49;;;;;;;64.18;26.23;;;1.60;99.90;;;;;;5095063;27;20054;-82
2022/12/09 11:28:14;;;;;;;74.70;27.90;;;1.50;99.90;;;;;;5113702;27;20472;-81
2022/12/09 11:30:53;;;;;;;64.18;27.42;;;1.60;99.90;;;;;;5122828;27;20070;-82
2022/12/09 11:33:36;;;;;;;59.17;25.48;;;1.70;99.90;;;;;;5130174;27;20086;-82
2022/12/09 11:36:09;;;;;;;55.47;25.73;;;1.70;99.90;;;;;;5121641;27;20421;-82
2022/12/09 11:38:41;;;;;;;70.15;28.27;;;1.90;99.90;;;;;;5112448;27;20497;-82
2022/12/09 11:41:10;;;;;;;57.70;26.35;;;1.80;99.90;;;;;;5111917;27;20150;-81
2022/12/09 11:43:38;;;;;;;59.65;25.83;;;1.80;99.90;;;;;;5130283;27;20125;-82
2022/12/09 11:46:32;;;;;;;53.70;25.35;;;2.10;99.90;;;;;;5112964;27;20035;-82
2022/12/09 11:49:05;;;;;;;58.70;24.90;;;2.00;99.90;;;;;;5112838;27;20047;-81
2022/12/09 11:51:40;;;;;;;53.53;23.55;;;1.90;99.90;;;;;;5129913;27;20039;-81
2022/12/09 11:54:24;;;;;;;51.15;24.05;;;2.00;99.90;;;;;;5129872;27;20129;-82
2022/12/09 11:56:51;;;;;;;50.97;23.38;;;2.10;99.90;;;;;;5095371;27;20047;-81
2022/12/09 11:59:34;;;;;;;53.13;24.95;;;2.20;99.90;;;;;;5110998;27;20151;-83
2022/12/09 12:02:20;;;;;;;;;;;2.30;99.90;;;;;;5108231;27;20067;-81
2022/12/09 12:05:07;;;;;;;49.33;22.77;;;2.30;99.90;;;;;;5105920;27;19971;-83
2022/12/09 12:07:43;;;;;;;51.28;22.85;;;2.50;99.90;;;;;;5118881;27;20488;-84
2022/12/09 12:10:22;;;;;;;47.08;22.35;;;2.50;99.90;;;;;;5132941;27;20049;-83
2022/12/09 12:13:15;;;;;;;45.58;23.15;;;2.50;99.90;;;;;;5131921;27;20055;-82
2022/12/09 12:16:05;;;;;;;45.80;22.95;;;2.40;99.90;;;;;;5132737;27;20464;-83
2022/12/09 12:18:38;;;;;;;45.47;22.80;;;2.40;99.90;;;;;;5151132;27;20054;-82
2022/12/09 12:21:14;;;;;;;43.65;21.67;;;2.40;99.90;;;;;;5132555;27;20053;-82
2022/12/09 12:23:58;;;;;;;44.95;22.95;;;2.40;99.90;;;;;;5127599;27;20050;-82
2022/12/09 12:26:30;;;;;;;43.45;22.92;;;2.30;99.90;;;;;;5115595;27;20089;-83
2022/12/09 12:28:56;;;;;;;;;;;2.50;99.90;;;;;;5130773;27;20095;-83
2022/12/09 12:31:53;;;;;;;44.72;23.45;;;2.30;99.90;;;;;;5128607;27;19927;-83
2022/12/09 12:34:44;;;;;;;41.38;21.58;;;2.50;99.90;;;;;;5130633;27;20043;-85
2022/12/09 12:37:26;;;;;;;42.90;22.05;;;2.60;99.90;;;;;;5123488;27;20043;-85
2022/12/09 12:40:07;;;;;;;42.50;21.20;;;2.50;99.90;;;;;;5111065;27;20118;-84
2022/12/09 12:49:07;;;;;;;39.63;21.77;;;2.60;99.90;;;;;;5128823;27;20050;-85
2022/12/09 12:51:59;;;;;;;42.00;22.30;;;2.60;99.90;;;;;;5111566;27;20722;-85
2022/12/09 12:54:53;;;;;;;40.53;20.83;;;2.50;99.90;;;;;;5094596;27;20039;-85